createdAt,value
2023-05-06T00:02:06.437Z,101666.63
2023-05-06T00:04:33.370Z,101668.75
2023-05-06T00:06:59.902Z,101658.78
2023-05-06T00:09:26.359Z,101663.16
2023-05-06T00:11:52.794Z,101663.50
2023-05-06T00:14:19.280Z,101671.78
2023-05-06T00:16:46.048Z,101661.00
2023-05-06T00:19:12.558Z,101651.91
2023-05-06T00:21:39.005Z,101659.06
2023-05-06T00:24:05.935Z,101657.75
2023-05-06T00:26:32.351Z,101659.84
2023-05-06T00:28:58.751Z,101658.06
2023-05-06T00:31:25.340Z,101663.25
2023-05-06T00:33:51.830Z,101656.75
2023-05-06T00:36:18.506Z,101655.25
2023-05-06T00:38:45.003Z,101660.31
2023-05-06T00:41:11.406Z,101657.06
2023-05-06T00:43:38.058Z,101657.06
2023-05-06T00:46:05.291Z,101651.53
2023-05-06T00:48:31.828Z,101647.44
2023-05-06T00:50:58.288Z,101653.81
2023-05-06T00:53:24.849Z,101649.44
2023-05-06T00:55:51.477Z,101650.56
2023-05-06T00:58:19.800Z,101649.41
2023-05-06T01:00:46.389Z,101649.75
2023-05-06T01:03:13.050Z,101645.84
2023-05-06T01:05:49.319Z,101642.38
2023-05-06T01:08:23.737Z,101644.97
2023-05-06T01:10:54.879Z,101640.72
2023-05-06T01:13:26.884Z,101637.81
2023-05-06T01:15:55.501Z,101634.59
2023-05-06T01:18:23.204Z,101632.47
2023-05-06T01:20:51.664Z,101635.44
2023-05-06T01:23:19.203Z,101633.81
2023-05-06T01:25:45.639Z,101628.91
2023-05-06T01:28:13.145Z,101628.91
2023-05-06T01:30:50.127Z,101623.34
2023-05-06T01:33:43.001Z,101633.53
2023-05-06T01:36:18.287Z,101629.16
2023-05-06T01:38:50.656Z,101631.25
2023-05-06T01:41:17.937Z,101630.59
2023-05-06T01:43:47.560Z,101631.84
2023-05-06T01:46:18.588Z,101622.09
2023-05-06T01:48:50.522Z,101617.25
2023-05-06T01:51:16.973Z,101613.69
2023-05-06T01:53:43.471Z,101617.09
2023-05-06T01:56:10.515Z,101607.81
2023-05-06T01:58:37.339Z,101623.09
2023-05-06T02:01:03.863Z,101622.94
2023-05-06T02:03:30.425Z,101625.34
2023-05-06T02:05:56.934Z,101635.22
2023-05-06T02:08:23.363Z,101633.88
2023-05-06T02:10:50.186Z,101642.81
2023-05-06T02:13:18.750Z,101647.06
2023-05-06T02:15:46.013Z,101643.63
2023-05-06T02:18:12.810Z,101642.16
2023-05-06T02:20:39.259Z,101643.94
2023-05-06T02:23:05.700Z,101645.72
2023-05-06T02:25:32.145Z,101642.31
2023-05-06T02:27:58.609Z,101649.59
2023-05-06T02:30:25.035Z,101647.75
2023-05-06T02:32:51.514Z,101655.19
2023-05-06T02:35:17.988Z,101646.59
2023-05-06T02:37:44.397Z,101644.00
2023-05-06T02:40:11.420Z,101643.34
2023-05-06T02:42:38.023Z,101643.63
2023-05-06T02:45:04.929Z,101638.44
2023-05-06T02:47:31.443Z,101641.19
2023-05-06T02:49:58.082Z,101646.38
2023-05-06T02:52:24.747Z,101645.56
2023-05-06T02:54:51.665Z,101644.22
2023-05-06T02:57:18.052Z,101641.28
2023-05-06T02:59:44.510Z,101642.09
2023-05-06T03:02:10.976Z,101654.28
2023-05-06T03:04:37.538Z,101637.81
2023-05-06T03:07:04.105Z,101650.84
2023-05-06T03:09:30.672Z,101645.78
2023-05-06T03:11:57.290Z,101643.19
2023-05-06T03:14:23.709Z,101645.78
2023-05-06T03:16:50.297Z,101632.34
2023-05-06T03:19:16.736Z,101638.69
2023-05-06T03:21:43.515Z,101636.53
2023-05-06T03:24:10.001Z,101633.25
2023-05-06T03:26:36.397Z,101629.72
2023-05-06T03:29:02.862Z,101613.88
2023-05-06T03:31:29.447Z,101628.47
2023-05-06T03:33:55.911Z,101627.81
2023-05-06T03:36:25.157Z,101631.06
2023-05-06T03:38:51.758Z,101630.56
2023-05-06T03:41:18.280Z,101622.41
2023-05-06T03:43:44.836Z,101627.09
2023-05-06T03:46:11.351Z,101633.91
2023-05-06T03:48:37.860Z,101636.66
2023-05-06T03:51:04.359Z,101629.47
2023-05-06T03:53:30.918Z,101632.75
2023-05-06T03:55:57.359Z,101636.16
2023-05-06T03:58:23.748Z,101631.28
2023-05-06T04:00:50.178Z,101636.16
2023-05-06T04:03:16.755Z,101632.59
2023-05-06T04:05:43.356Z,101641.06
2023-05-06T04:08:09.847Z,101639.25
2023-05-06T04:10:40.535Z,101638.31
2023-05-06T04:13:07.411Z,101640.97
2023-05-06T04:15:35.224Z,101635.47
2023-05-06T04:18:01.774Z,101634.00
2023-05-06T04:20:28.250Z,101633.69
2023-05-06T04:22:54.672Z,101638.31
2023-05-06T04:25:21.234Z,101641.34
2023-05-06T04:27:48.535Z,101634.28
2023-05-06T04:30:15.158Z,101633.78
2023-05-06T04:32:41.649Z,101642.53
2023-05-06T04:35:08.722Z,101642.84
2023-05-06T04:37:35.420Z,101651.00
2023-05-06T04:40:02.468Z,101650.16
2023-05-06T04:42:28.840Z,101659.16
2023-05-06T04:44:55.827Z,101662.16
2023-05-06T04:47:22.619Z,101655.72
2023-05-06T04:49:49.076Z,101665.13
2023-05-06T04:52:15.546Z,101667.72
2023-05-06T04:54:44.177Z,101666.75
2023-05-06T04:57:11.745Z,101662.81
2023-05-06T04:59:38.210Z,101668.22
2023-05-06T05:02:04.783Z,101680.31
2023-05-06T05:04:31.203Z,101681.34
2023-05-06T05:06:58.532Z,101685.13
2023-05-06T05:09:24.992Z,101680.94
2023-05-06T05:11:51.396Z,101683.00
2023-05-06T05:14:17.824Z,101687.94
2023-05-06T05:16:44.483Z,101684.25
2023-05-06T05:19:11.006Z,101689.19
2023-05-06T05:21:37.517Z,101687.63
2023-05-06T05:24:04.268Z,101689.50
2023-05-06T05:26:30.815Z,101684.78
2023-05-06T05:28:57.231Z,101677.38
2023-05-06T05:31:24.313Z,101686.50
2023-05-06T05:33:50.799Z,101680.03
2023-05-06T05:36:17.291Z,101680.69
2023-05-06T05:38:43.761Z,101683.94
2023-05-06T05:41:10.270Z,101674.50
2023-05-06T05:43:36.721Z,101684.78
2023-05-06T05:46:03.441Z,101688.34
2023-05-06T05:48:32.540Z,101687.53
2023-05-06T05:51:00.129Z,101689.81
2023-05-06T05:53:26.742Z,101692.13
2023-05-06T05:55:54.186Z,101684.59
2023-05-06T05:58:20.750Z,101699.44
2023-05-06T06:00:47.189Z,101685.56
2023-05-06T06:03:13.781Z,101699.28
2023-05-06T06:05:40.418Z,101700.41
2023-05-06T06:08:07.016Z,101690.44
2023-05-06T06:10:33.442Z,101694.19
2023-05-06T06:12:59.907Z,101693.06
2023-05-06T06:15:26.441Z,101688.81
2023-05-06T06:17:56.078Z,101692.53
2023-05-06T06:20:22.612Z,101696.59
2023-05-06T06:22:49.062Z,101697.56
2023-05-06T06:25:15.597Z,101683.88
2023-05-06T06:27:42.158Z,101690.72
2023-05-06T06:30:09.101Z,101700.47
2023-05-06T06:32:35.691Z,101701.28
2023-05-06T06:35:02.162Z,101694.19
2023-05-06T06:37:28.629Z,101694.34
2023-05-06T06:39:55.035Z,101700.03
2023-05-06T06:42:21.608Z,101699.06
2023-05-06T06:44:48.078Z,101701.94
2023-05-06T06:47:14.522Z,101697.16
2023-05-06T06:49:41.053Z,101697.66
2023-05-06T06:52:07.462Z,101690.41
2023-05-06T06:54:33.988Z,101704.34
2023-05-06T06:57:01.438Z,101705.00
2023-05-06T06:59:27.890Z,101706.09
2023-05-06T07:01:54.346Z,101702.91
2023-05-06T07:04:21.097Z,101708.69
2023-05-06T07:06:47.639Z,101710.63
2023-05-06T07:09:14.076Z,101705.25
2023-05-06T07:11:40.526Z,101718.25
2023-05-06T07:14:07.289Z,101715.72
2023-05-06T07:16:34.049Z,101708.72
2023-05-06T07:19:01.398Z,101715.56
2023-05-06T07:21:28.021Z,101714.56
2023-05-06T07:23:54.437Z,101713.38
2023-05-06T07:26:21.402Z,101711.31
2023-05-06T07:28:47.794Z,101708.88
2023-05-06T07:31:16.021Z,101712.22
2023-05-06T07:33:42.545Z,101711.41
2023-05-06T07:36:09.049Z,101712.59
2023-05-06T07:38:35.569Z,101723.25
2023-05-06T07:41:02.134Z,101718.69
2023-05-06T07:43:28.575Z,101712.28
2023-05-06T07:46:02.370Z,101724.44
2023-05-06T07:48:29.893Z,101719.34
2023-05-06T07:50:56.566Z,101713.75
2023-05-06T07:53:23.064Z,101723.94
2023-05-06T07:55:49.600Z,101722.78
2023-05-06T07:58:16.127Z,101727.19
2023-05-06T08:00:42.520Z,101726.41
2023-05-06T08:03:09.076Z,101733.53
2023-05-06T08:05:35.661Z,101728.91
2023-05-06T08:08:02.154Z,101730.72
2023-05-06T08:10:28.643Z,101734.63
2023-05-06T08:12:55.107Z,101736.22
2023-05-06T08:15:21.535Z,101734.28
2023-05-06T08:17:48.055Z,101734.94
2023-05-06T08:20:14.537Z,101743.84
2023-05-06T08:22:41.018Z,101741.19
2023-05-06T08:25:07.846Z,101735.75
2023-05-06T08:27:34.540Z,101740.66
2023-05-06T08:30:01.245Z,101744.53
2023-05-06T08:32:27.756Z,101742.00
2023-05-06T08:34:54.278Z,101742.19
2023-05-06T08:37:20.796Z,101753.13
2023-05-06T08:39:47.206Z,101750.28
2023-05-06T08:42:13.684Z,101752.72
2023-05-06T08:44:40.268Z,101738.75
2023-05-06T08:47:06.771Z,101750.94
2023-05-06T08:49:33.275Z,101744.84
2023-05-06T08:52:02.367Z,101742.47
2023-05-06T08:54:29.332Z,101742.28
2023-05-06T08:56:57.591Z,101727.69
2023-05-06T08:59:25.335Z,101740.00
2023-05-06T09:01:53.186Z,101740.59
2023-05-06T09:04:19.997Z,101727.50
2023-05-06T09:06:46.400Z,101732.44
2023-05-06T09:09:14.782Z,101731.25
2023-05-06T09:11:41.455Z,101730.38
2023-05-06T09:14:15.951Z,101731.16
2023-05-06T09:16:47.752Z,101732.63
2023-05-06T09:19:14.686Z,101719.41
2023-05-06T09:21:43.380Z,101719.88
2023-05-06T09:24:11.036Z,101720.38
2023-05-06T09:26:38.845Z,101718.47
2023-05-06T09:29:05.958Z,101720.41
2023-05-06T09:31:32.810Z,101715.81
2023-05-06T09:34:00.577Z,101718.97
2023-05-06T09:36:28.045Z,101708.75
2023-05-06T09:38:55.825Z,101704.34
2023-05-06T09:41:25.252Z,101710.94
2023-05-06T09:43:56.119Z,101710.28
2023-05-06T09:46:23.811Z,101706.69
2023-05-06T09:48:55.086Z,101706.28
2023-05-06T09:51:21.757Z,101713.47
2023-05-06T09:53:48.672Z,101701.75
2023-05-06T09:56:16.133Z,101705.00
2023-05-06T09:58:42.839Z,101700.09
2023-05-06T10:01:09.767Z,101698.09
2023-05-06T10:03:36.539Z,101704.94
2023-05-06T10:06:05.888Z,101700.97
2023-05-06T10:08:33.041Z,101706.53
2023-05-06T10:11:01.110Z,101691.19
2023-05-06T10:13:27.822Z,101694.84
2023-05-06T10:15:54.715Z,101693.69
2023-05-06T10:18:21.897Z,101696.97
2023-05-06T10:20:49.320Z,101688.75
2023-05-06T10:23:44.313Z,101693.59
2023-05-06T10:26:12.043Z,101687.50
2023-05-06T10:28:41.323Z,101689.94
2023-05-06T10:31:15.896Z,101690.94
2023-05-06T10:33:45.204Z,101689.38
2023-05-06T10:36:14.209Z,101691.78
2023-05-06T10:38:42.745Z,101693.09
2023-05-06T10:41:09.757Z,101694.59
2023-05-06T10:43:41.334Z,101683.97
2023-05-06T10:46:12.932Z,101688.56
2023-05-06T10:49:11.446Z,101688.84
2023-05-06T10:51:38.799Z,101678.28
2023-05-06T10:54:09.053Z,101676.94
2023-05-06T10:56:40.324Z,101677.75
2023-05-06T10:59:09.082Z,101671.06
2023-05-06T11:01:39.990Z,101669.00
2023-05-06T11:04:18.947Z,101670.38
2023-05-06T11:06:47.167Z,101672.22
2023-05-06T11:09:20.353Z,101672.34
2023-05-06T11:11:51.155Z,101673.16
2023-05-06T11:14:35.471Z,101680.94
2023-05-06T11:17:09.496Z,101673.69
2023-05-06T11:19:37.641Z,101674.94
2023-05-06T11:22:06.054Z,101669.19
2023-05-06T11:24:39.831Z,101665.72
2023-05-06T11:27:07.044Z,101677.13
2023-05-06T11:29:33.491Z,101671.63
2023-05-06T11:32:00.011Z,101668.41
2023-05-06T11:34:31.252Z,101665.56
2023-05-06T11:37:02.552Z,101663.25
2023-05-06T11:39:31.194Z,101658.75
2023-05-06T11:42:02.871Z,101652.28
2023-05-06T11:44:31.713Z,101651.88
2023-05-06T11:46:59.593Z,101652.38
2023-05-06T11:49:27.456Z,101658.09
2023-05-06T11:51:55.488Z,101658.44
2023-05-06T11:54:22.956Z,101655.59
2023-05-06T11:56:51.525Z,101664.66
2023-05-06T11:59:25.284Z,101656.56
2023-05-06T12:01:51.833Z,101663.63
2023-05-06T12:04:18.289Z,101655.09
2023-05-06T12:06:44.711Z,101667.16
2023-05-06T12:09:12.332Z,101656.03
2023-05-06T12:11:39.668Z,101663.88
2023-05-06T12:14:07.706Z,101662.22
2023-05-06T12:16:35.398Z,101661.25
2023-05-06T12:19:02.465Z,101656.47
2023-05-06T12:21:29.497Z,101658.91
2023-05-06T12:24:05.201Z,101662.28
2023-05-06T12:26:43.288Z,101664.00
2023-05-06T12:29:11.598Z,101666.22
2023-05-06T12:31:38.475Z,101660.94
2023-05-06T12:34:05.149Z,101669.22
2023-05-06T12:36:32.530Z,101661.88
2023-05-06T12:39:00.962Z,101666.00
2023-05-06T12:41:44.220Z,101658.09
2023-05-06T12:44:36.846Z,101658.06
2023-05-06T12:47:09.666Z,101655.91
2023-05-06T12:49:51.334Z,101654.69
2023-05-06T12:52:18.577Z,101655.84
2023-05-06T12:54:45.884Z,101644.72
2023-05-06T12:57:12.623Z,101644.94
2023-05-06T12:59:39.329Z,101652.22
2023-05-06T13:02:06.358Z,101645.16
2023-05-06T13:04:32.925Z,101645.31
2023-05-06T13:06:59.475Z,101650.59
2023-05-06T13:09:26.019Z,101645.00
2023-05-06T13:11:52.671Z,101647.16
2023-05-06T13:14:19.146Z,101656.44
2023-05-06T13:16:46.421Z,101650.66
2023-05-06T13:19:21.261Z,101648.97
2023-05-06T13:21:58.667Z,101659.56
2023-05-06T13:24:25.076Z,101654.63
2023-05-06T13:26:51.521Z,101662.38
2023-05-06T13:29:18.031Z,101655.84
2023-05-06T13:31:44.601Z,101656.47
2023-05-06T13:34:11.089Z,101654.47
2023-05-06T13:36:37.696Z,101650.78
2023-05-06T13:39:05.266Z,101655.06
2023-05-06T13:41:32.793Z,101652.41
2023-05-06T13:43:59.389Z,101645.16
2023-05-06T13:46:27.277Z,101643.75
2023-05-06T13:48:53.856Z,101637.91
2023-05-06T13:51:20.324Z,101629.47
2023-05-06T13:53:46.799Z,101625.72
2023-05-06T13:56:13.338Z,101630.38
2023-05-06T13:58:39.813Z,101623.84
2023-05-06T14:01:06.393Z,101624.97
2023-05-06T14:03:32.969Z,101617.41
2023-05-06T14:05:59.489Z,101612.28
2023-05-06T14:08:25.954Z,101615.78
2023-05-06T14:10:52.378Z,101618.69
2023-05-06T14:13:19.039Z,101613.59
2023-05-06T14:15:45.545Z,101612.59
2023-05-06T14:18:12.088Z,101603.09
2023-05-06T14:20:39.103Z,101612.69
2023-05-06T14:23:06.936Z,101604.22
2023-05-06T14:25:33.424Z,101595.69
2023-05-06T14:27:59.975Z,101605.97
2023-05-06T14:30:26.419Z,101601.09
2023-05-06T14:32:52.834Z,101577.88
2023-05-06T14:35:19.382Z,101589.19
2023-05-06T14:37:46.157Z,101598.44
2023-05-06T14:40:13.026Z,101599.84
2023-05-06T14:42:39.479Z,101602.50
2023-05-06T14:45:06.769Z,101580.66
2023-05-06T14:47:33.499Z,101598.53
2023-05-06T14:50:00.110Z,101597.72
2023-05-06T14:52:26.936Z,101593.38
2023-05-06T14:54:53.387Z,101592.13
2023-05-06T14:57:19.871Z,101599.00
2023-05-06T14:59:46.482Z,101594.97
2023-05-06T15:02:12.974Z,101577.38
2023-05-06T15:04:39.411Z,101595.88
2023-05-06T15:07:05.824Z,101599.59
2023-05-06T15:09:32.315Z,101597.09
2023-05-06T15:11:58.839Z,101601.72
2023-05-06T15:14:25.422Z,101596.72
2023-05-06T15:16:57.103Z,101601.22
2023-05-06T15:19:24.330Z,101595.97
2023-05-06T15:21:51.099Z,101594.06
2023-05-06T15:24:17.653Z,101597.78
2023-05-06T15:26:44.135Z,101596.38
2023-05-06T15:29:10.616Z,101584.53
2023-05-06T15:31:39.385Z,101590.47
2023-05-06T15:34:06.848Z,101589.28
2023-05-06T15:36:33.605Z,101589.22
2023-05-06T15:39:01.041Z,101588.69
2023-05-06T15:41:32.634Z,101588.94
2023-05-06T15:44:00.425Z,101575.69
2023-05-06T15:46:27.733Z,101571.50
2023-05-06T15:49:17.457Z,101586.41
2023-05-06T15:51:40.989Z,101577.41
2023-05-06T15:54:07.569Z,101592.19
2023-05-06T15:56:39.372Z,101590.97
2023-05-06T15:59:08.182Z,101588.78
2023-05-06T16:02:04.707Z,101585.09
2023-05-06T16:04:21.348Z,101594.47
2023-05-06T16:06:47.976Z,101589.78
2023-05-06T16:09:14.492Z,101595.88
2023-05-06T16:11:41.097Z,101597.91
2023-05-06T16:14:07.569Z,101590.41
2023-05-06T16:16:34.060Z,101602.66
2023-05-06T16:19:00.527Z,101589.63
2023-05-06T16:21:27.161Z,101593.78
2023-05-06T16:23:53.618Z,101597.00
2023-05-06T16:26:20.056Z,101594.13
2023-05-06T16:28:46.602Z,101592.75
2023-05-06T16:31:13.079Z,101594.75
2023-05-06T16:33:39.531Z,101597.25
2023-05-06T16:36:06.395Z,101593.56
2023-05-06T16:38:32.892Z,101592.06
2023-05-06T16:40:59.356Z,101592.09
2023-05-06T16:43:25.816Z,101590.13
2023-05-06T16:45:52.259Z,101586.31
2023-05-06T16:48:18.910Z,101590.59
2023-05-06T16:50:45.462Z,101595.09
2023-05-06T16:53:11.923Z,101599.31
2023-05-06T16:55:38.457Z,101595.06
2023-05-06T16:58:04.908Z,101596.09
2023-05-06T17:00:31.975Z,101594.09
2023-05-06T17:02:58.763Z,101597.41
2023-05-06T17:05:25.497Z,101595.09
2023-05-06T17:07:52.596Z,101600.72
2023-05-06T17:10:19.146Z,101601.59
2023-05-06T17:12:45.889Z,101595.94
2023-05-06T17:15:12.385Z,101589.91
2023-05-06T17:17:39.930Z,101593.22
2023-05-06T17:20:07.224Z,101588.81
2023-05-06T17:22:33.772Z,101594.78
2023-05-06T17:25:00.209Z,101588.75
2023-05-06T17:27:26.648Z,101587.81
2023-05-06T17:29:53.056Z,101587.59
2023-05-06T17:32:19.808Z,101585.81
2023-05-06T17:34:46.423Z,101591.97
2023-05-06T17:37:12.948Z,101590.44
2023-05-06T17:39:39.814Z,101586.84
2023-05-06T17:42:06.283Z,101580.63
2023-05-06T17:44:35.153Z,101574.75
2023-05-06T17:47:01.568Z,101570.06
2023-05-06T17:49:28.065Z,101585.06
2023-05-06T17:51:55.936Z,101595.75
2023-05-06T17:54:22.921Z,101610.34
2023-05-06T17:56:52.698Z,101613.84
2023-05-06T17:59:19.876Z,101622.00
2023-05-06T18:01:46.562Z,101613.44
2023-05-06T18:04:13.451Z,101624.34
2023-05-06T18:06:41.564Z,101615.13
2023-05-06T18:09:08.458Z,101616.81
2023-05-06T18:11:35.206Z,101621.75
2023-05-06T18:14:01.682Z,101614.53
2023-05-06T18:16:28.185Z,101620.22
2023-05-06T18:18:54.654Z,101631.53
2023-05-06T18:21:21.241Z,101616.25
2023-05-06T18:23:48.525Z,101631.22
2023-05-06T18:26:28.005Z,101632.41
2023-05-06T18:29:04.121Z,101632.53
2023-05-06T18:31:30.675Z,101633.09
2023-05-06T18:33:57.186Z,101630.53
2023-05-06T18:36:23.724Z,101634.97
2023-05-06T18:38:50.409Z,101636.16
2023-05-06T18:41:16.993Z,101651.13
2023-05-06T18:43:43.461Z,101650.16
2023-05-06T18:46:09.964Z,101654.09
2023-05-06T18:48:36.449Z,101656.84
2023-05-06T18:51:13.296Z,101655.16
2023-05-06T18:53:40.175Z,101661.97
2023-05-06T18:56:07.699Z,101669.19
2023-05-06T18:58:36.004Z,101669.09
2023-05-06T19:01:03.309Z,101665.88
2023-05-06T19:03:29.824Z,101670.09
2023-05-06T19:05:57.218Z,101671.34
2023-05-06T19:08:23.710Z,101675.06
2023-05-06T19:10:50.240Z,101673.09
2023-05-06T19:13:16.920Z,101677.84
2023-05-06T19:15:43.525Z,101681.47
2023-05-06T19:18:11.648Z,101683.53
2023-05-06T19:20:38.160Z,101681.09
2023-05-06T19:23:04.877Z,101679.47
2023-05-06T19:25:33.027Z,101679.19
2023-05-06T19:27:59.484Z,101675.41
2023-05-06T19:30:27.833Z,101681.09
2023-05-06T19:32:55.501Z,101674.38
2023-05-06T19:35:23.258Z,101670.66
2023-05-06T19:37:49.672Z,101678.25
2023-05-06T19:40:18.725Z,101674.06
2023-05-06T19:42:46.075Z,101671.31
2023-05-06T19:45:13.217Z,101667.50
2023-05-06T19:47:39.876Z,101666.88
2023-05-06T19:50:07.145Z,101674.56
2023-05-06T19:52:34.508Z,101668.03
2023-05-06T19:55:03.812Z,101664.00
2023-05-06T19:57:30.420Z,101665.38
2023-05-06T19:59:56.843Z,101666.00
2023-05-06T20:02:23.425Z,101667.25
2023-05-06T20:04:50.104Z,101671.88
2023-05-06T20:07:17.227Z,101668.63
2023-05-06T20:09:43.755Z,101670.47
2023-05-06T20:12:10.180Z,101664.97
2023-05-06T20:14:36.630Z,101673.09
2023-05-06T20:17:03.067Z,101677.19
2023-05-06T20:19:31.135Z,101671.81
2023-05-06T20:21:58.424Z,101665.41
2023-05-06T20:24:25.539Z,101664.34
2023-05-06T20:26:52.143Z,101670.97
2023-05-06T20:29:18.692Z,101671.34
2023-05-06T20:31:48.404Z,101668.50
2023-05-06T20:34:15.143Z,101659.00
2023-05-06T20:36:42.790Z,101669.59
2023-05-06T20:39:12.256Z,101672.72
2023-05-06T20:41:38.742Z,101669.59
2023-05-06T20:44:05.222Z,101678.69
2023-05-06T20:46:32.899Z,101674.28
2023-05-06T20:49:00.619Z,101669.31
2023-05-06T20:51:27.808Z,101665.69
2023-05-06T20:53:58.986Z,101671.31
2023-05-06T20:56:27.729Z,101670.13
2023-05-06T20:58:55.464Z,101680.44
2023-05-06T21:01:23.793Z,101677.47
2023-05-06T21:03:50.383Z,101672.75
2023-05-06T21:06:17.670Z,101674.56
2023-05-06T21:08:45.622Z,101668.41
2023-05-06T21:11:12.641Z,101674.28
2023-05-06T21:13:39.627Z,101656.59
2023-05-06T21:16:06.160Z,101670.75
2023-05-06T21:18:32.679Z,101653.69
2023-05-06T21:20:59.732Z,101664.44
2023-05-06T21:23:26.500Z,101667.25
2023-05-06T21:25:53.019Z,101660.41
2023-05-06T21:28:19.550Z,101662.63
2023-05-06T21:30:46.099Z,101660.00
2023-05-06T21:33:12.641Z,101650.53
2023-05-06T21:35:39.078Z,101613.88
2023-05-06T21:38:05.487Z,101644.88
2023-05-06T21:40:32.053Z,101621.53
2023-05-06T21:42:58.439Z,101642.13
2023-05-06T21:45:24.965Z,101648.72
2023-05-06T21:47:51.524Z,101619.41
2023-05-06T21:50:18.205Z,101642.69
2023-05-06T21:52:44.778Z,101612.09
2023-05-06T21:55:11.650Z,101621.41
2023-05-06T21:57:38.859Z,101629.28
2023-05-06T22:00:11.819Z,101651.81
2023-05-06T22:02:39.531Z,101616.59
2023-05-06T22:05:09.569Z,101635.31
2023-05-06T22:07:36.258Z,101620.25
2023-05-06T22:10:03.690Z,101653.91
2023-05-06T22:12:31.136Z,101653.91
2023-05-06T22:14:57.557Z,101635.22
2023-05-06T22:17:24.195Z,101623.03
2023-05-06T22:19:51.536Z,101649.66
2023-05-06T22:22:18.566Z,101648.75
2023-05-06T22:24:48.125Z,101654.16
2023-05-06T22:27:14.519Z,101661.25
2023-05-06T22:29:41.332Z,101658.94
2023-05-06T22:32:07.919Z,101667.00
2023-05-06T22:34:34.419Z,101647.56
2023-05-06T22:37:01.264Z,101669.88
2023-05-06T22:39:27.847Z,101644.88
2023-05-06T22:41:54.289Z,101633.78
2023-05-06T22:44:21.261Z,101646.69
2023-05-06T22:46:47.715Z,101654.81
2023-05-06T22:49:15.864Z,101671.41
2023-05-06T22:51:42.527Z,101662.03
2023-05-06T22:54:08.999Z,101656.69
2023-05-06T22:56:35.703Z,101640.72
2023-05-06T22:59:02.175Z,101640.72
2023-05-06T23:01:32.104Z,101674.75
2023-05-06T23:03:59.381Z,101662.38
2023-05-06T23:06:27.655Z,101663.38
2023-05-06T23:08:54.086Z,101668.44
2023-05-06T23:11:20.601Z,101648.13
2023-05-06T23:13:47.299Z,101640.63
2023-05-06T23:16:14.650Z,101654.38
2023-05-06T23:18:41.386Z,101647.50
2023-05-06T23:21:08.056Z,101669.97
2023-05-06T23:23:34.588Z,101664.28
2023-05-06T23:26:01.029Z,101637.47
2023-05-06T23:28:27.824Z,101655.34
2023-05-06T23:30:54.317Z,101675.38
2023-05-06T23:33:20.875Z,101664.84
2023-05-06T23:35:47.240Z,101662.91
2023-05-06T23:38:13.625Z,101653.53
2023-05-06T23:40:40.097Z,101673.22
2023-05-06T23:43:11.215Z,101657.16
2023-05-06T23:45:37.939Z,101659.75
2023-05-06T23:48:04.964Z,101646.28
2023-05-06T23:50:31.536Z,101680.16
2023-05-06T23:52:58.044Z,101680.25
2023-05-06T23:55:26.194Z,101669.66
2023-05-06T23:57:52.612Z,101664.88
